sensor_id;sensor_type;location;lat;lon;timestamp;pressure;altitude;pressure_sealevel;temperature;humidity
74678;BME280;67324;56.326;43.982;2023-04-24T00:00:56;100756.34;;;25.86;30.95
74678;BME280;67324;56.326;43.982;2023-04-24T00:03:23;100753.69;;;25.86;31.15
74678;BME280;67324;56.326;43.982;2023-04-24T00:05:49;100752.19;;;25.83;31.13
74678;BME280;67324;56.326;43.982;2023-04-24T00:08:15;100754.84;;;25.83;30.97
74678;BME280;67324;56.326;43.982;2023-04-24T00:10:41;100748.41;;;25.86;31.14
74678;BME280;67324;56.326;43.982;2023-04-24T00:13:07;100749.56;;;25.83;31.19
74678;BME280;67324;56.326;43.982;2023-04-24T00:15:33;100749.56;;;25.83;31.03
74678;BME280;67324;56.326;43.982;2023-04-24T00:17:58;100753.69;;;25.86;31.00
74678;BME280;67324;56.326;43.982;2023-04-24T00:20:27;100754.69;;;25.85;31.21
74678;BME280;67324;56.326;43.982;2023-04-24T00:22:55;100766.97;;;25.86;31.17
74678;BME280;67324;56.326;43.982;2023-04-24T00:25:21;100756.34;;;25.86;31.14
74678;BME280;67324;56.326;43.982;2023-04-24T00:27:47;100756.34;;;25.86;31.29
74678;BME280;67324;56.326;43.982;2023-04-24T00:30:13;100752.88;;;25.85;31.06
74678;BME280;67324;56.326;43.982;2023-04-24T00:32:39;100755.66;;;25.84;31.35
74678;BME280;67324;56.326;43.982;2023-04-24T00:35:05;100756.53;;;25.84;31.03
74678;BME280;67324;56.326;43.982;2023-04-24T00:37:50;100758.19;;;25.85;31.27
74678;BME280;67324;56.326;43.982;2023-04-24T00:40:16;100759.81;;;25.86;31.04
74678;BME280;67324;56.326;43.982;2023-04-24T00:42:43;100767.13;;;25.84;31.33
74678;BME280;67324;56.326;43.982;2023-04-24T00:45:09;100765.28;;;25.85;31.27
74678;BME280;67324;56.326;43.982;2023-04-24T00:47:36;100757.16;;;25.86;31.34
74678;BME280;67324;56.326;43.982;2023-04-24T00:50:03;100762.81;;;25.83;31.13
74678;BME280;67324;56.326;43.982;2023-04-24T00:52:29;100753.69;;;25.86;31.25
74678;BME280;67324;56.326;43.982;2023-04-24T00:54:57;100751.38;;;25.83;31.29
74678;BME280;67324;56.326;43.982;2023-04-24T00:57:23;100760.84;;;25.85;31.12
74678;BME280;67324;56.326;43.982;2023-04-24T00:59:51;100750.38;;;25.84;31.17
74678;BME280;67324;56.326;43.982;2023-04-24T01:02:17;100755.38;;;25.87;31.08
74678;BME280;67324;56.326;43.982;2023-04-24T01:04:44;100754.53;;;25.86;31.10
74678;BME280;67324;56.326;43.982;2023-04-24T01:07:10;100746.09;;;25.83;31.22
74678;BME280;67324;56.326;43.982;2023-04-24T01:09:55;100755.66;;;25.84;31.07
74678;BME280;67324;56.326;43.982;2023-04-24T01:12:21;100754.03;;;25.83;31.00
74678;BME280;67324;56.326;43.982;2023-04-24T01:14:46;100765.28;;;25.85;31.14
74678;BME280;67324;56.326;43.982;2023-04-24T01:17:14;100759.00;;;25.86;31.27
74678;BME280;67324;56.326;43.982;2023-04-24T01:19:40;100757.50;;;25.83;31.20
74678;BME280;67324;56.326;43.982;2023-04-24T01:22:13;100759.81;;;25.86;31.28
74678;BME280;67324;56.326;43.982;2023-04-24T01:24:58;100753.03;;;25.84;31.32
74678;BME280;67324;56.326;43.982;2023-04-24T01:27:24;100756.34;;;25.86;31.12
74678;BME280;67324;56.326;43.982;2023-04-24T01:29:50;100758.03;;;25.87;31.39
74678;BME280;67324;56.326;43.982;2023-04-24T01:32:17;100759.81;;;25.86;31.15
74678;BME280;67324;56.326;43.982;2023-04-24T01:34:45;100751.06;;;25.86;31.27
74678;BME280;67324;56.326;43.982;2023-04-24T01:37:10;100753.03;;;25.84;31.07
74678;BME280;67324;56.326;43.982;2023-04-24T01:39:36;100742.41;;;25.84;31.16
74678;BME280;67324;56.326;43.982;2023-04-24T01:42:02;100753.69;;;25.86;31.25
74678;BME280;67324;56.326;43.982;2023-04-24T01:44:28;100751.06;;;25.86;31.15
74678;BME280;67324;56.326;43.982;2023-04-24T01:46:55;100751.06;;;25.86;31.18
74678;BME280;67324;56.326;43.982;2023-04-24T01:49:23;100751.06;;;25.86;31.18
74678;BME280;67324;56.326;43.982;2023-04-24T01:51:49;100753.88;;;25.84;31.06
74678;BME280;67324;56.326;43.982;2023-04-24T01:54:15;100756.34;;;25.86;31.30
74678;BME280;67324;56.326;43.982;2023-04-24T01:56:41;100752.03;;;25.85;31.15
74678;BME280;67324;56.326;43.982;2023-04-24T01:59:11;100752.03;;;25.85;31.28
74678;BME280;67324;56.326;43.982;2023-04-24T02:01:37;100758.03;;;25.87;31.17
74678;BME280;67324;56.326;43.982;2023-04-24T02:04:04;100761.50;;;25.87;31.03
74678;BME280;67324;56.326;43.982;2023-04-24T02:06:31;100763.31;;;25.87;31.05
74678;BME280;67324;56.326;43.982;2023-04-24T02:09:00;100754.69;;;25.85;31.04
74678;BME280;67324;56.326;43.982;2023-04-24T02:11:27;100764.47;;;25.84;31.07
74678;BME280;67324;56.326;43.982;2023-04-24T02:13:53;100771.44;;;25.85;30.97
74678;BME280;67324;56.326;43.982;2023-04-24T02:16:19;100763.31;;;25.87;31.04
74678;BME280;67324;56.326;43.982;2023-04-24T02:19:04;100765.28;;;25.85;31.07
74678;BME280;67324;56.326;43.982;2023-04-24T02:21:30;100767.13;;;25.84;31.10
74678;BME280;67324;56.326;43.982;2023-04-24T02:23:56;100776.56;;;25.87;30.96
74678;BME280;67324;56.326;43.982;2023-04-24T02:26:22;100774.09;;;25.85;31.22
74678;BME280;67324;56.326;43.982;2023-04-24T02:28:50;100771.28;;;25.87;31.09
74678;BME280;67324;56.326;43.982;2023-04-24T02:31:18;100773.91;;;25.87;31.23
74678;BME280;67324;56.326;43.982;2023-04-24T02:33:44;100777.38;;;25.87;31.12
74678;BME280;67324;56.326;43.982;2023-04-24T02:36:10;100786.16;;;25.88;31.14
74678;BME280;67324;56.326;43.982;2023-04-24T02:38:36;100783.03;;;25.84;31.18
74678;BME280;67324;56.326;43.982;2023-04-24T02:41:01;100792.47;;;25.87;31.31
74678;BME280;67324;56.326;43.982;2023-04-24T02:43:32;100786.50;;;25.85;30.95
74678;BME280;67324;56.326;43.982;2023-04-24T02:45:59;100795.13;;;25.87;31.11
74678;BME280;67324;56.326;43.982;2023-04-24T02:48:25;100793.44;;;25.86;31.26
74678;BME280;67324;56.326;43.982;2023-04-24T02:50:51;100803.72;;;25.89;31.08
74678;BME280;67324;56.326;43.982;2023-04-24T02:53:35;100795.13;;;25.87;31.10
74678;BME280;67324;56.326;43.982;2023-04-24T02:56:01;100800.22;;;25.88;31.13
74678;BME280;67324;56.326;43.982;2023-04-24T02:58:46;100808.19;;;25.88;31.16
74678;BME280;67324;56.326;43.982;2023-04-24T03:01:12;100802.38;;;25.85;31.12
74678;BME280;67324;56.326;43.982;2023-04-24T03:03:38;100809.19;;;25.87;31.10
74678;BME280;67324;56.326;43.982;2023-04-24T03:06:05;100811.03;;;25.87;31.11
74678;BME280;67324;56.326;43.982;2023-04-24T03:08:35;100817.97;;;25.88;31.13
74678;BME280;67324;56.326;43.982;2023-04-24T03:11:00;100823.25;;;25.88;31.04
74678;BME280;67324;56.326;43.982;2023-04-24T03:13:26;100823.25;;;25.88;31.09
74678;BME280;67324;56.326;43.982;2023-04-24T03:15:52;100819.13;;;25.85;31.14
74678;BME280;67324;56.326;43.982;2023-04-24T03:18:19;100816.50;;;25.85;30.95
74678;BME280;67324;56.326;43.982;2023-04-24T03:20:48;100827.75;;;25.87;31.19
74678;BME280;67324;56.326;43.982;2023-04-24T03:23:14;100824.94;;;25.89;31.00
74678;BME280;67324;56.326;43.982;2023-04-24T03:25:39;100822.44;;;25.87;31.31
74678;BME280;67324;56.326;43.982;2023-04-24T03:28:06;100829.56;;;25.87;31.23
74678;BME280;67324;56.326;43.982;2023-04-24T03:30:52;100831.88;;;25.90;31.20
74678;BME280;67324;56.326;43.982;2023-04-24T03:33:19;100833.69;;;25.89;31.18
74678;BME280;67324;56.326;43.982;2023-04-24T03:35:59;100828.72;;;25.86;31.14
74678;BME280;67324;56.326;43.982;2023-04-24T03:38:26;100826.06;;;25.86;30.99
74678;BME280;67324;56.326;43.982;2023-04-24T03:40:52;100832.03;;;25.88;31.20
74678;BME280;67324;56.326;43.982;2023-04-24T03:43:37;100838.19;;;25.89;31.05
74678;BME280;67324;56.326;43.982;2023-04-24T03:46:04;100845.13;;;25.90;31.12
74678;BME280;67324;56.326;43.982;2023-04-24T03:48:33;100838.34;;;25.87;31.14
74678;BME280;67324;56.326;43.982;2023-04-24T03:51:00;100849.59;;;25.89;31.33
74678;BME280;67324;56.326;43.982;2023-04-24T03:53:28;100840.81;;;25.89;31.14
74678;BME280;67324;56.326;43.982;2023-04-24T03:55:55;100841.00;;;25.87;31.06
74678;BME280;67324;56.326;43.982;2023-04-24T03:58:21;100849.59;;;25.89;31.24
74678;BME280;67324;56.326;43.982;2023-04-24T04:01:05;100849.75;;;25.88;31.00
74678;BME280;67324;56.326;43.982;2023-04-24T04:03:54;100850.41;;;25.90;31.32
74678;BME280;67324;56.326;43.982;2023-04-24T04:06:23;100857.56;;;25.89;31.12
74678;BME280;67324;56.326;43.982;2023-04-24T04:08:50;100855.88;;;25.88;31.00
74678;BME280;67324;56.326;43.982;2023-04-24T04:11:35;100860.84;;;25.91;31.03
74678;BME280;67324;56.326;43.982;2023-04-24T04:14:01;100864.50;;;25.90;31.01
74678;BME280;67324;56.326;43.982;2023-04-24T04:16:27;100862.84;;;25.89;31.20
74678;BME280;67324;56.326;43.982;2023-04-24T04:18:59;100872.28;;;25.92;31.06
74678;BME280;67324;56.326;43.982;2023-04-24T04:21:25;100862.03;;;25.89;31.10
74678;BME280;67324;56.326;43.982;2023-04-24T04:23:57;100867.97;;;25.91;31.17
74678;BME280;67324;56.326;43.982;2023-04-24T04:26:32;100863.84;;;25.88;31.17
74678;BME280;67324;56.326;43.982;2023-04-24T04:29:06;100874.09;;;25.91;31.20
74678;BME280;67324;56.326;43.982;2023-04-24T04:31:35;100880.22;;;25.92;31.04
74678;BME280;67324;56.326;43.982;2023-04-24T04:34:06;100874.09;;;25.91;31.20
74678;BME280;67324;56.326;43.982;2023-04-24T04:36:33;100885.53;;;25.92;31.12
74678;BME280;67324;56.326;43.982;2023-04-24T04:39:10;100880.38;;;25.90;31.10
74678;BME280;67324;56.326;43.982;2023-04-24T04:41:46;100876.91;;;25.90;31.19
74678;BME280;67324;56.326;43.982;2023-04-24T04:44:16;100885.53;;;25.92;31.29
74678;BME280;67324;56.326;43.982;2023-04-24T04:46:42;100876.09;;;25.89;31.22
74678;BME280;67324;56.326;43.982;2023-04-24T04:49:28;100882.88;;;25.92;31.31
74678;BME280;67324;56.326;43.982;2023-04-24T04:51:54;100893.28;;;25.93;31.18
74678;BME280;67324;56.326;43.982;2023-04-24T04:54:22;100886.50;;;25.91;31.33
74678;BME280;67324;56.326;43.982;2023-04-24T04:56:50;100888.19;;;25.92;31.38
74678;BME280;67324;56.326;43.982;2023-04-24T04:59:16;100899.59;;;25.92;31.20
74678;BME280;67324;56.326;43.982;2023-04-24T05:01:42;100895.47;;;25.90;31.38
74678;BME280;67324;56.326;43.982;2023-04-24T05:04:09;100898.94;;;25.90;31.32
74678;BME280;67324;56.326;43.982;2023-04-24T05:06:36;100897.13;;;25.91;31.05
74678;BME280;67324;56.326;43.982;2023-04-24T05:09:04;100904.09;;;25.92;31.11
74678;BME280;67324;56.326;43.982;2023-04-24T05:11:37;100908.38;;;25.93;31.41
74678;BME280;67324;56.326;43.982;2023-04-24T05:14:03;100897.97;;;25.91;31.37
74678;BME280;67324;56.326;43.982;2023-04-24T05:16:34;100898.59;;;25.93;31.11
74678;BME280;67324;56.326;43.982;2023-04-24T05:19:00;100901.88;;;25.95;31.13
74678;BME280;67324;56.326;43.982;2023-04-24T05:21:32;100896.94;;;25.92;31.28
74678;BME280;67324;56.326;43.982;2023-04-24T05:24:16;100901.06;;;25.95;31.14
74678;BME280;67324;56.326;43.982;2023-04-24T05:27:02;100893.94;;;25.95;31.46
74678;BME280;67324;56.326;43.982;2023-04-24T05:29:40;100898.06;;;25.98;34.72
74678;BME280;67324;56.326;43.982;2023-04-24T05:32:07;100897.25;;;25.97;36.13
74678;BME280;67324;56.326;43.982;2023-04-24T05:34:33;100890.31;;;25.96;34.14
74678;BME280;67324;56.326;43.982;2023-04-24T05:36:59;100895.41;;;25.98;33.92
74678;BME280;67324;56.326;43.982;2023-04-24T05:39:25;100898.72;;;26.00;34.90
74678;BME280;67324;56.326;43.982;2023-04-24T05:41:51;100891.94;;;25.97;35.48
74678;BME280;67324;56.326;43.982;2023-04-24T05:44:17;100907.50;;;26.00;35.93
74678;BME280;67324;56.326;43.982;2023-04-24T05:46:43;100906.66;;;26.00;36.35
74678;BME280;67324;56.326;43.982;2023-04-24T05:49:10;100902.53;;;25.97;36.96
74678;BME280;67324;56.326;43.982;2023-04-24T05:51:36;100909.50;;;25.98;37.63
74678;BME280;67324;56.326;43.982;2023-04-24T05:54:02;100911.50;;;25.96;37.58
74678;BME280;67324;56.326;43.982;2023-04-24T05:56:29;100915.63;;;25.99;37.95
74678;BME280;67324;56.326;43.982;2023-04-24T05:58:56;100905.38;;;25.96;37.89
74678;BME280;67324;56.326;43.982;2023-04-24T06:01:22;100918.28;;;25.99;38.07
74678;BME280;67324;56.326;43.982;2023-04-24T06:03:57;100912.34;;;25.97;37.90
74678;BME280;67324;56.326;43.982;2023-04-24T06:06:24;100906.22;;;25.96;38.13
74678;BME280;67324;56.326;43.982;2023-04-24T06:08:51;100909.69;;;25.97;37.98
74678;BME280;67324;56.326;43.982;2023-04-24T06:11:17;100918.28;;;25.99;38.08
74678;BME280;67324;56.326;43.982;2023-04-24T06:13:43;100916.81;;;25.96;37.95
74678;BME280;67324;56.326;43.982;2023-04-24T06:16:31;100921.91;;;25.98;37.72
74678;BME280;67324;56.326;43.982;2023-04-24T06:19:03;100920.94;;;25.99;37.72
74678;BME280;67324;56.326;43.982;2023-04-24T06:21:29;100916.63;;;25.98;37.90
74678;BME280;67324;56.326;43.982;2023-04-24T06:23:54;100924.41;;;25.99;37.75
74678;BME280;67324;56.326;43.982;2023-04-24T06:26:21;100912.34;;;25.97;37.68
74678;BME280;67324;56.326;43.982;2023-04-24T06:28:47;100910.34;;;25.99;37.55
74678;BME280;67324;56.326;43.982;2023-04-24T06:31:13;100908.00;;;25.96;37.54
74678;BME280;67324;56.326;43.982;2023-04-24T06:33:39;100915.63;;;25.99;37.35
74678;BME280;67324;56.326;43.982;2023-04-24T06:36:05;100913.97;;;25.98;37.11
74678;BME280;67324;56.326;43.982;2023-04-24T06:38:31;100921.75;;;25.99;37.11
74678;BME280;67324;56.326;43.982;2023-04-24T06:40:57;100918.28;;;25.99;37.17
74678;BME280;67324;56.326;43.982;2023-04-24T06:43:23;100911.16;;;25.99;37.15
74678;BME280;67324;56.326;43.982;2023-04-24T06:45:49;100921.75;;;25.99;37.10
74678;BME280;67324;56.326;43.982;2023-04-24T06:48:15;100914.78;;;25.98;36.94
74678;BME280;67324;56.326;43.982;2023-04-24T06:50:41;100916.63;;;25.98;36.94
74678;BME280;67324;56.326;43.982;2023-04-24T06:53:07;100911.50;;;25.96;36.60
74678;BME280;67324;56.326;43.982;2023-04-24T06:55:33;100921.91;;;25.98;36.60
74678;BME280;67324;56.326;43.982;2023-04-24T06:57:59;100920.94;;;25.99;36.45
74678;BME280;67324;56.326;43.982;2023-04-24T07:00:25;100919.28;;;25.98;36.58
74678;BME280;67324;56.326;43.982;2023-04-24T07:02:50;100919.94;;;26.00;36.40
74678;BME280;67324;56.326;43.982;2023-04-24T07:05:16;100924.56;;;25.98;36.24
74678;BME280;67324;56.326;43.982;2023-04-24T07:07:46;100921.91;;;25.98;36.45
74678;BME280;67324;56.326;43.982;2023-04-24T07:10:12;100925.38;;;25.98;36.09
74678;BME280;67324;56.326;43.982;2023-04-24T07:12:38;100924.22;;;26.01;36.04
74678;BME280;67324;56.326;43.982;2023-04-24T07:15:05;100933.19;;;26.00;36.04
74678;BME280;67324;56.326;43.982;2023-04-24T07:17:31;100926.25;;;25.99;35.77
74678;BME280;67324;56.326;43.982;2023-04-24T07:19:57;100926.03;;;26.00;35.98
74678;BME280;67324;56.326;43.982;2023-04-24T07:22:23;100921.91;;;25.98;35.92
74678;BME280;67324;56.326;43.982;2023-04-24T07:24:49;100925.06;;;26.02;35.71
74678;BME280;67324;56.326;43.982;2023-04-24T07:27:15;100916.25;;;26.01;35.76
74678;BME280;67324;56.326;43.982;2023-04-24T07:29:41;100925.22;;;26.00;35.63
74678;BME280;67324;56.326;43.982;2023-04-24T07:32:06;100926.88;;;26.01;35.29
74678;BME280;67324;56.326;43.982;2023-04-24T07:34:33;100913.97;;;25.98;35.53
74678;BME280;67324;56.326;43.982;2023-04-24T07:36:59;100919.28;;;25.98;35.24
74678;BME280;67324;56.326;43.982;2023-04-24T07:39:25;100926.88;;;26.01;35.43
74678;BME280;67324;56.326;43.982;2023-04-24T07:41:52;100923.59;;;25.99;35.26
74678;BME280;67324;56.326;43.982;2023-04-24T07:44:17;100926.88;;;26.01;35.19
74678;BME280;67324;56.326;43.982;2023-04-24T07:46:43;100921.91;;;25.98;35.28
74678;BME280;67324;56.326;43.982;2023-04-24T07:49:09;100926.25;;;25.99;35.28
74678;BME280;67324;56.326;43.982;2023-04-24T07:51:35;100936.66;;;26.00;35.20
74678;BME280;67324;56.326;43.982;2023-04-24T07:54:04;100925.88;;;26.02;35.15
74678;BME280;67324;56.326;43.982;2023-04-24T07:56:31;100918.28;;;25.99;35.26
74678;BME280;67324;56.326;43.982;2023-04-24T07:58:57;100923.22;;;26.02;34.99
74678;BME280;67324;56.326;43.982;2023-04-24T08:01:23;100909.50;;;25.98;34.79
74678;BME280;67324;56.326;43.982;2023-04-24T08:03:50;100913.59;;;26.01;35.04
74678;BME280;67324;56.326;43.982;2023-04-24T08:06:35;100907.50;;;26.00;34.89
74678;BME280;67324;56.326;43.982;2023-04-24T08:09:01;100919.75;;;26.02;34.86
74678;BME280;67324;56.326;43.982;2023-04-24T08:11:27;100905.03;;;25.99;34.63
74678;BME280;67324;56.326;43.982;2023-04-24T08:13:52;100912.63;;;26.02;34.56
74678;BME280;67324;56.326;43.982;2023-04-24T08:16:20;100907.31;;;26.02;34.69
74678;BME280;67324;56.326;43.982;2023-04-24T08:18:45;100908.31;;;26.01;34.48
74678;BME280;67324;56.326;43.982;2023-04-24T08:21:11;100911.97;;;26.00;34.89
74678;BME280;67324;56.326;43.982;2023-04-24T08:23:43;100909.97;;;26.02;34.60
74678;BME280;67324;56.326;43.982;2023-04-24T08:26:08;100903.84;;;26.02;34.55
74678;BME280;67324;56.326;43.982;2023-04-24T08:28:36;100905.50;;;26.03;34.56
74678;BME280;67324;56.326;43.982;2023-04-24T08:31:01;100901.00;;;26.03;34.53
74678;BME280;67324;56.326;43.982;2023-04-24T08:33:27;100906.31;;;26.03;34.34
74678;BME280;67324;56.326;43.982;2023-04-24T08:35:58;100896.06;;;26.00;34.13
74678;BME280;67324;56.326;43.982;2023-04-24T08:38:26;100896.53;;;25.72;30.47
74678;BME280;67324;56.326;43.982;2023-04-24T08:40:52;100889.72;;;25.47;29.45
74678;BME280;67324;56.326;43.982;2023-04-24T08:43:18;100882.69;;;25.14;27.21
74678;BME280;67324;56.326;43.982;2023-04-24T08:45:46;100888.03;;;24.98;26.60
74678;BME280;67324;56.326;43.982;2023-04-24T08:48:13;100887.19;;;24.98;26.64
74678;BME280;67324;56.326;43.982;2023-04-24T08:50:40;100886.53;;;24.96;25.78
74678;BME280;67324;56.326;43.982;2023-04-24T08:53:08;100881.66;;;24.60;25.09
74678;BME280;67324;56.326;43.982;2023-04-24T08:55:34;100880.50;;;24.62;25.23
74678;BME280;67324;56.326;43.982;2023-04-24T08:58:01;100881.47;;;24.61;25.15
74678;BME280;67324;56.326;43.982;2023-04-24T09:00:28;100870.56;;;24.56;25.05
74678;BME280;67324;56.326;43.982;2023-04-24T09:02:55;100866.75;;;24.59;24.74
74678;BME280;67324;56.326;43.982;2023-04-24T09:05:22;100860.97;;;24.47;24.44
74678;BME280;67324;56.326;43.982;2023-04-24T09:07:56;100851.56;;;24.20;23.88
74678;BME280;67324;56.326;43.982;2023-04-24T09:10:24;100859.13;;;24.39;24.38
74678;BME280;67324;56.326;43.982;2023-04-24T09:12:51;100852.84;;;24.32;24.33
74678;BME280;67324;56.326;43.982;2023-04-24T09:15:18;100863.09;;;24.27;24.54
74678;BME280;67324;56.326;43.982;2023-04-24T09:17:46;100852.22;;;24.38;24.67
74678;BME280;67324;56.326;43.982;2023-04-24T09:20:12;100846.56;;;24.41;24.54
74678;BME280;67324;56.326;43.982;2023-04-24T09:22:38;100832.69;;;24.39;24.61
74678;BME280;67324;56.326;43.982;2023-04-24T09:25:08;100845.28;;;24.37;24.41
74678;BME280;67324;56.326;43.982;2023-04-24T09:27:42;100845.09;;;24.31;24.31
74678;BME280;67324;56.326;43.982;2023-04-24T09:30:09;100842.78;;;24.11;24.30
74678;BME280;67324;56.326;43.982;2023-04-24T09:33:13;100846.25;;;24.12;23.78
74678;BME280;67324;56.326;43.982;2023-04-24T09:35:42;100847.91;;;24.13;23.84
74678;BME280;67324;56.326;43.982;2023-04-24T09:38:13;100848.88;;;24.12;24.33
74678;BME280;67324;56.326;43.982;2023-04-24T09:40:39;100841.81;;;24.20;24.43
74678;BME280;67324;56.326;43.982;2023-04-24T09:43:10;100838.81;;;24.07;24.14
74678;BME280;67324;56.326;43.982;2023-04-24T09:45:37;100831.56;;;24.01;24.67
74678;BME280;67324;56.326;43.982;2023-04-24T09:48:04;100828.56;;;24.04;24.42
74678;BME280;67324;56.326;43.982;2023-04-24T09:50:32;100823.28;;;23.96;23.90
74678;BME280;67324;56.326;43.982;2023-04-24T09:53:04;100830.69;;;23.84;24.28
74678;BME280;67324;56.326;43.982;2023-04-24T09:55:30;100836.16;;;23.99;24.38
74678;BME280;67324;56.326;43.982;2023-04-24T09:57:58;100830.41;;;24.03;24.30
74678;BME280;67324;56.326;43.982;2023-04-24T10:00:30;100826.59;;;24.06;24.14
74678;BME280;67324;56.326;43.982;2023-04-24T10:03:01;100818.69;;;23.98;24.24
74678;BME280;67324;56.326;43.982;2023-04-24T10:07:59;100816.66;;;24.00;23.77
74678;BME280;67324;56.326;43.982;2023-04-24T10:10:26;100824.97;;;24.05;23.91
74678;BME280;67324;56.326;43.982;2023-04-24T10:12:52;100825.78;;;24.05;23.78
74678;BME280;67324;56.326;43.982;2023-04-24T10:15:20;100822.81;;;24.08;23.67
74678;BME280;67324;56.326;43.982;2023-04-24T10:17:48;100811.72;;;23.97;23.62
74678;BME280;67324;56.326;43.982;2023-04-24T10:20:22;100808.53;;;23.69;23.53
74678;BME280;67324;56.326;43.982;2023-04-24T10:22:50;100804.41;;;23.66;23.55
74678;BME280;67324;56.326;43.982;2023-04-24T10:25:18;100804.63;;;23.89;23.73
74678;BME280;67324;56.326;43.982;2023-04-24T10:27:45;100801.19;;;24.05;23.88
74678;BME280;67324;56.326;43.982;2023-04-24T10:30:12;100799.34;;;24.05;23.54
74678;BME280;67324;56.326;43.982;2023-04-24T10:32:38;100801.47;;;24.02;23.69
74678;BME280;67324;56.326;43.982;2023-04-24T10:35:06;100796.38;;;24.00;23.58
74678;BME280;67324;56.326;43.982;2023-04-24T10:37:38;100803.78;;;23.97;23.61
74678;BME280;67324;56.326;43.982;2023-04-24T10:40:07;100802.31;;;24.11;23.92
74678;BME280;67324;56.326;43.982;2023-04-24T10:42:34;100801.97;;;24.30;24.25
74678;BME280;67324;56.326;43.982;2023-04-24T10:45:05;100806.59;;;24.36;23.99
74678;BME280;67324;56.326;43.982;2023-04-24T10:47:40;100797.03;;;24.11;23.37
74678;BME280;67324;56.326;43.982;2023-04-24T10:50:10;100797.34;;;23.99;23.36
74678;BME280;67324;56.326;43.982;2023-04-24T10:52:49;100783.00;;;24.10;23.75
74678;BME280;67324;56.326;43.982;2023-04-24T10:55:41;100776.38;;;24.22;22.93
74678;BME280;67324;56.326;43.982;2023-04-24T10:58:09;100793.06;;;24.31;23.31
74678;BME280;67324;56.326;43.982;2023-04-24T11:00:40;100793.72;;;24.17;23.03
74678;BME280;67324;56.326;43.982;2023-04-24T11:03:12;100781.00;;;24.20;23.19
74678;BME280;67324;56.326;43.982;2023-04-24T11:06:07;100784.31;;;24.06;22.67
74678;BME280;67324;56.326;43.982;2023-04-24T11:08:45;100777.84;;;23.92;22.70
74678;BME280;67324;56.326;43.982;2023-04-24T11:11:12;100774.25;;;23.93;22.72
74678;BME280;67324;56.326;43.982;2023-04-24T11:18:57;100769.59;;;23.71;22.81
74678;BME280;67324;56.326;43.982;2023-04-24T11:21:27;100764.81;;;23.74;22.99
74678;BME280;67324;56.326;43.982;2023-04-24T11:23:57;100761.03;;;23.85;23.08
74678;BME280;67324;56.326;43.982;2023-04-24T11:26:23;100758.56;;;23.83;23.06
74678;BME280;67324;56.326;43.982;2023-04-24T11:29:07;100754.09;;;23.92;23.01
74678;BME280;67324;56.326;43.982;2023-04-24T11:31:44;100746.16;;;23.92;23.14
74678;BME280;67324;56.326;43.982;2023-04-24T11:34:15;100756.72;;;23.92;22.76
74678;BME280;67324;56.326;43.982;2023-04-24T11:36:48;100740.72;;;23.85;22.94
74678;BME280;67324;56.326;43.982;2023-04-24T11:39:14;100756.56;;;23.85;22.42
74678;BME280;67324;56.326;43.982;2023-04-24T11:41:40;100758.88;;;23.89;22.83
74678;BME280;67324;56.326;43.982;2023-04-24T11:44:08;100750.28;;;23.95;22.81
74678;BME280;67324;56.326;43.982;2023-04-24T11:46:34;100740.38;;;23.89;22.69
74678;BME280;67324;56.326;43.982;2023-04-24T11:49:00;100750.47;;;23.93;22.84
74678;BME280;67324;56.326;43.982;2023-04-24T11:51:27;100744.84;;;24.13;22.99
74678;BME280;67324;56.326;43.982;2023-04-24T11:53:54;100740.53;;;24.28;23.12
74678;BME280;67324;56.326;43.982;2023-04-24T11:56:24;100746.09;;;24.41;23.20
74678;BME280;67324;56.326;43.982;2023-04-24T11:58:53;100737.84;;;24.36;23.09
74678;BME280;67324;56.326;43.982;2023-04-24T12:01:47;100728.66;;;24.07;22.54
74678;BME280;67324;56.326;43.982;2023-04-24T12:04:16;100733.09;;;24.15;22.71
74678;BME280;67324;56.326;43.982;2023-04-24T12:07:00;100727.50;;;24.02;22.69
74678;BME280;67324;56.326;43.982;2023-04-24T12:09:27;100722.88;;;23.96;22.71
74678;BME280;67324;56.326;43.982;2023-04-24T12:11:56;100726.00;;;23.99;22.65
74678;BME280;67324;56.326;43.982;2023-04-24T12:14:25;100725.19;;;23.99;22.67
74678;BME280;67324;56.326;43.982;2023-04-24T12:16:51;100721.56;;;23.92;22.68
74678;BME280;67324;56.326;43.982;2023-04-24T12:19:23;100707.69;;;24.06;22.46
74678;BME280;67324;56.326;43.982;2023-04-24T12:22:03;100713.13;;;23.96;22.36
74678;BME280;67324;56.326;43.982;2023-04-24T12:24:29;100715.94;;;23.95;22.25
74678;BME280;67324;56.326;43.982;2023-04-24T12:26:56;100699.28;;;24.02;22.91
74678;BME280;67324;56.326;43.982;2023-04-24T12:29:23;100709.97;;;24.25;23.03
74678;BME280;67324;56.326;43.982;2023-04-24T12:31:50;100710.91;;;24.41;22.72
74678;BME280;67324;56.326;43.982;2023-04-24T12:34:24;100715.72;;;24.29;22.32
74678;BME280;67324;56.326;43.982;2023-04-24T12:36:51;100710.78;;;24.26;22.26
74678;BME280;67324;56.326;43.982;2023-04-24T12:39:18;100706.69;;;24.15;22.42
74678;BME280;67324;56.326;43.982;2023-04-24T12:41:57;100701.06;;;24.18;21.98
74678;BME280;67324;56.326;43.982;2023-04-24T12:44:34;100706.19;;;24.12;22.02
74678;BME280;67324;56.326;43.982;2023-04-24T12:47:01;100702.53;;;24.04;22.22
74678;BME280;67324;56.326;43.982;2023-04-24T12:49:29;100698.22;;;24.28;22.50
74678;BME280;67324;56.326;43.982;2023-04-24T12:51:55;100692.75;;;24.46;22.73
74678;BME280;67324;56.326;43.982;2023-04-24T12:54:22;100679.41;;;24.15;22.37
74678;BME280;67324;56.326;43.982;2023-04-24T12:56:48;100676.91;;;24.21;21.98